createdAt,value
2023-03-30T00:01:58.219Z,101270.00
2023-03-30T00:04:31.229Z,101275.00
2023-03-30T00:07:08.380Z,101270.00
2023-03-30T00:09:43.625Z,101275.00
2023-03-30T00:12:18.252Z,101262.00
2023-03-30T00:14:52.253Z,101252.00
2023-03-30T00:17:25.156Z,101253.00
2023-03-30T00:19:58.043Z,101252.00
2023-03-30T00:22:31.169Z,101253.00
2023-03-30T00:25:04.000Z,101246.00
2023-03-30T00:27:37.194Z,101243.00
2023-03-30T00:30:11.969Z,101244.00
2023-03-30T00:32:45.661Z,101240.00
2023-03-30T00:35:18.699Z,101231.00
2023-03-30T00:37:51.630Z,101238.00
2023-03-30T00:40:25.502Z,101231.00
2023-03-30T00:43:02.609Z,101223.00
2023-03-30T00:45:38.964Z,101232.00
2023-03-30T00:48:26.087Z,101211.00
2023-03-30T00:51:04.136Z,101212.00
2023-03-30T00:53:39.050Z,101226.00
2023-03-30T00:56:13.864Z,101227.00
2023-03-30T00:58:47.322Z,101215.00
2023-03-30T01:01:26.077Z,101211.00
2023-03-30T01:04:01.241Z,101221.00
2023-03-30T01:06:35.738Z,101215.00
2023-03-30T01:09:09.032Z,101208.00
2023-03-30T01:11:41.860Z,101210.00
2023-03-30T01:14:16.581Z,101216.00
2023-03-30T01:17:09.257Z,101219.00
2023-03-30T01:19:53.144Z,101201.00
2023-03-30T01:22:52.262Z,101192.00
2023-03-30T01:25:35.984Z,101193.00
2023-03-30T01:28:22.493Z,101190.00
2023-03-30T01:31:16.757Z,101183.00
2023-03-30T01:34:11.202Z,101171.00
2023-03-30T01:37:19.359Z,101181.00
2023-03-30T01:39:59.998Z,101163.00
2023-03-30T01:42:38.023Z,101171.00
2023-03-30T01:45:13.062Z,101169.00
2023-03-30T01:47:59.990Z,101156.00
2023-03-30T01:50:49.458Z,101156.00
2023-03-30T01:53:48.195Z,101151.00
2023-03-30T01:56:44.242Z,101142.00
2023-03-30T01:59:18.776Z,101164.00
2023-03-30T02:01:55.104Z,101145.00
2023-03-30T02:04:28.540Z,101159.00
2023-03-30T02:07:06.170Z,101141.00
2023-03-30T02:09:41.047Z,101136.00
2023-03-30T02:12:16.188Z,101150.00
2023-03-30T02:14:50.124Z,101141.00
2023-03-30T02:17:27.197Z,101138.00
2023-03-30T02:20:00.317Z,101124.00
2023-03-30T02:22:34.320Z,101133.00
2023-03-30T02:25:07.449Z,101121.00
2023-03-30T02:27:40.554Z,101124.00
2023-03-30T02:30:13.930Z,101120.00
2023-03-30T02:32:51.991Z,101122.00
2023-03-30T02:35:43.415Z,101125.00
2023-03-30T02:38:36.656Z,101124.00
2023-03-30T02:41:11.313Z,101105.00
2023-03-30T02:43:46.480Z,101106.00
2023-03-30T02:46:34.077Z,101101.00
2023-03-30T02:49:21.323Z,101106.00
2023-03-30T02:52:17.251Z,101106.00
2023-03-30T02:54:58.937Z,101110.00
2023-03-30T02:57:46.023Z,101100.00
2023-03-30T03:00:30.176Z,101096.00
2023-03-30T03:03:05.687Z,101104.00
2023-03-30T03:05:38.943Z,101096.00
2023-03-30T03:08:12.588Z,101102.00
2023-03-30T03:10:45.671Z,101113.00
2023-03-30T03:13:18.770Z,101115.00
2023-03-30T03:15:51.674Z,101118.00
2023-03-30T03:18:24.626Z,101096.00
2023-03-30T03:20:57.883Z,101095.00
2023-03-30T03:23:30.783Z,101106.00
2023-03-30T03:26:03.810Z,101093.00
2023-03-30T03:28:36.830Z,101100.00
2023-03-30T03:31:09.858Z,101094.00
2023-03-30T03:33:42.816Z,101102.00
2023-03-30T03:36:15.683Z,101112.00
2023-03-30T03:38:48.687Z,101101.00
2023-03-30T03:41:21.556Z,101113.00
2023-03-30T03:43:54.734Z,101105.00
2023-03-30T03:46:27.758Z,101105.00
2023-03-30T03:49:00.745Z,101111.00
2023-03-30T03:51:34.879Z,101094.00
2023-03-30T03:54:08.992Z,101112.00
2023-03-30T03:56:42.086Z,101107.00
2023-03-30T03:59:15.064Z,101094.00
2023-03-30T04:01:48.048Z,101100.00
2023-03-30T04:04:21.545Z,101101.00
2023-03-30T04:06:54.985Z,101085.00
2023-03-30T04:09:28.603Z,101087.00
2023-03-30T04:12:01.444Z,101087.00
2023-03-30T04:14:35.329Z,101085.00
2023-03-30T04:17:08.311Z,101087.00
2023-03-30T04:19:41.774Z,101095.00
2023-03-30T04:22:15.626Z,101099.00
2023-03-30T04:24:48.726Z,101101.00
2023-03-30T04:27:22.020Z,101093.00
2023-03-30T04:29:54.868Z,101093.00
2023-03-30T04:32:28.287Z,101100.00
2023-03-30T04:35:00.947Z,101090.00
2023-03-30T04:37:34.309Z,101100.00
2023-03-30T04:40:11.310Z,101106.00
2023-03-30T04:42:48.385Z,101101.00
2023-03-30T04:45:24.048Z,101105.00
2023-03-30T04:47:57.010Z,101107.00
2023-03-30T04:50:30.030Z,101111.00
2023-03-30T04:53:03.074Z,101110.00
2023-03-30T04:55:36.127Z,101096.00
2023-03-30T04:58:09.283Z,101106.00
2023-03-30T05:00:42.051Z,101110.00
2023-03-30T05:03:14.956Z,101107.00
2023-03-30T05:05:47.910Z,101118.00
2023-03-30T05:08:21.318Z,101120.00
2023-03-30T05:10:54.384Z,101121.00
2023-03-30T05:13:27.710Z,101119.00
2023-03-30T05:16:00.732Z,101119.00
2023-03-30T05:18:33.678Z,101073.00
2023-03-30T05:21:06.838Z,101120.00
2023-03-30T05:23:41.189Z,101129.00
2023-03-30T05:26:14.402Z,101124.00
2023-03-30T05:28:47.393Z,101126.00
2023-03-30T05:31:20.268Z,101133.00
2023-03-30T05:33:54.011Z,101128.00
2023-03-30T05:36:26.955Z,101124.00
2023-03-30T05:39:00.141Z,101128.00
2023-03-30T05:41:33.008Z,101145.00
2023-03-30T05:44:06.889Z,101130.00
2023-03-30T05:46:39.807Z,101135.00
2023-03-30T05:49:13.030Z,101129.00
2023-03-30T05:51:45.977Z,101131.00
2023-03-30T05:54:18.970Z,101136.00
2023-03-30T05:56:52.499Z,101137.00
2023-03-30T05:59:25.715Z,101142.00
2023-03-30T06:01:59.172Z,101142.00
2023-03-30T06:04:33.282Z,101140.00
2023-03-30T06:07:06.352Z,101133.00
2023-03-30T06:09:39.579Z,101136.00
2023-03-30T06:12:13.422Z,101136.00
2023-03-30T06:14:46.525Z,101142.00
2023-03-30T06:17:19.380Z,101135.00
2023-03-30T06:19:52.550Z,101123.00
2023-03-30T06:22:25.410Z,101141.00
2023-03-30T06:24:58.614Z,101134.00
2023-03-30T06:27:32.989Z,101138.00
2023-03-30T06:30:16.086Z,101139.00
2023-03-30T06:32:49.114Z,101137.00
2023-03-30T06:35:22.573Z,101129.00
2023-03-30T06:37:56.962Z,101139.00
2023-03-30T06:40:37.702Z,101146.00
2023-03-30T06:43:20.876Z,101139.00
2023-03-30T06:45:51.762Z,101139.00
2023-03-30T06:48:26.206Z,101144.00
2023-03-30T06:51:04.773Z,101140.00
2023-03-30T06:53:43.844Z,101147.00
2023-03-30T06:56:23.018Z,101154.00
2023-03-30T06:59:06.713Z,101147.00
2023-03-30T07:01:53.934Z,101146.00
2023-03-30T07:04:49.729Z,101144.00
2023-03-30T07:07:26.036Z,101142.00
2023-03-30T07:10:16.173Z,101143.00
2023-03-30T07:12:58.753Z,101148.00
2023-03-30T07:15:46.868Z,101148.00
2023-03-30T07:18:34.855Z,101153.00
2023-03-30T07:21:05.420Z,101154.00
2023-03-30T07:26:56.098Z,101166.00
2023-03-30T07:29:52.272Z,101171.00
2023-03-30T07:32:40.653Z,101174.00
2023-03-30T07:35:36.110Z,101171.00
2023-03-30T07:38:47.504Z,101173.00
2023-03-30T07:53:35.214Z,101179.00
2023-03-30T07:56:34.908Z,101176.00
2023-03-30T08:02:53.161Z,101180.00
2023-03-30T08:13:31.003Z,101192.00
2023-03-30T08:24:59.774Z,101200.00
2023-03-30T08:41:09.005Z,101229.00
2023-03-30T08:50:15.226Z,101218.00
2023-03-30T09:02:25.402Z,101214.00
2023-03-30T09:08:56.649Z,101214.00
2023-03-30T09:12:11.852Z,101210.00
2023-03-30T09:34:55.828Z,101212.00
2023-03-30T09:41:13.267Z,101220.00
2023-03-30T11:08:04.505Z,101218.00
2023-03-30T11:41:12.877Z,101223.00
2023-03-30T11:50:31.273Z,101224.00
2023-03-30T12:22:32.010Z,101241.00
2023-03-30T12:29:15.071Z,101242.00
2023-03-30T12:34:46.930Z,101251.00
2023-03-30T12:38:10.102Z,101257.00
2023-03-30T12:44:06.876Z,101254.00
2023-03-30T12:46:46.051Z,101255.00
2023-03-30T12:49:44.891Z,101260.00
2023-03-30T12:56:09.077Z,101260.00
2023-03-30T12:59:35.212Z,101261.00
2023-03-30T13:05:56.675Z,101264.00
2023-03-30T13:15:24.387Z,101249.00
2023-03-30T13:30:26.612Z,101251.00
2023-03-30T13:38:54.479Z,101259.00
2023-03-30T14:07:47.288Z,101251.00
2023-03-30T14:10:32.358Z,101244.00
2023-03-30T14:13:18.025Z,101244.00
2023-03-30T14:16:15.767Z,101239.00
2023-03-30T14:18:45.982Z,101238.00
2023-03-30T14:21:25.959Z,101239.00
2023-03-30T14:24:20.504Z,101238.00
2023-03-30T14:27:00.838Z,101234.00
2023-03-30T14:32:37.324Z,101233.00
2023-03-30T14:38:30.315Z,101217.00
2023-03-30T14:41:22.601Z,101216.00
2023-03-30T14:44:14.252Z,101212.00
2023-03-30T14:50:42.101Z,101216.00
2023-03-30T15:03:35.540Z,101212.00
2023-03-30T15:11:17.568Z,101200.00
2023-03-30T15:14:03.975Z,101202.00
2023-03-30T15:16:48.943Z,101199.00
2023-03-30T15:19:51.944Z,101206.00
2023-03-30T15:25:56.856Z,101198.00
2023-03-30T15:28:52.940Z,101188.00
2023-03-30T15:31:41.493Z,101198.00
2023-03-30T15:37:23.305Z,101188.00
2023-03-30T15:43:06.357Z,101186.00
2023-03-30T15:48:51.416Z,101192.00
2023-03-30T15:51:38.648Z,101185.00
2023-03-30T15:54:19.824Z,101185.00
2023-03-30T15:57:03.782Z,101190.00
2023-03-30T15:59:39.030Z,101178.00
2023-03-30T16:02:29.676Z,101181.00
2023-03-30T16:05:04.002Z,101188.00
2023-03-30T16:07:37.983Z,101187.00
2023-03-30T16:10:18.508Z,101193.00
2023-03-30T16:12:51.741Z,101190.00
2023-03-30T16:15:26.511Z,101189.00
2023-03-30T16:17:59.378Z,101186.00
2023-03-30T16:20:34.465Z,101187.00
2023-03-30T16:23:10.498Z,101187.00
2023-03-30T16:25:45.272Z,101181.00
2023-03-30T16:28:19.460Z,101183.00
2023-03-30T16:30:53.535Z,101195.00
2023-03-30T16:33:26.644Z,101185.00
2023-03-30T16:35:59.724Z,101191.00
2023-03-30T16:38:32.629Z,101187.00
2023-03-30T16:41:06.376Z,101202.00
2023-03-30T16:43:40.071Z,101207.00
2023-03-30T16:46:16.979Z,101195.00
2023-03-30T16:48:49.596Z,101197.00
2023-03-30T16:51:23.093Z,101197.00
2023-03-30T16:53:55.984Z,101189.00
2023-03-30T16:56:29.388Z,101194.00
2023-03-30T16:59:02.661Z,101200.00
2023-03-30T17:01:35.891Z,101200.00
2023-03-30T17:04:09.949Z,101196.00
2023-03-30T17:06:42.972Z,101200.00
2023-03-30T17:09:20.746Z,101223.00
2023-03-30T17:11:57.397Z,101218.00
2023-03-30T17:14:32.123Z,101218.00
2023-03-30T17:17:05.266Z,101222.00
2023-03-30T17:19:38.534Z,101219.00
2023-03-30T17:22:11.184Z,101217.00
2023-03-30T17:24:44.802Z,101208.00
2023-03-30T17:27:18.571Z,101202.00
2023-03-30T17:29:51.670Z,101206.00
2023-03-30T17:32:25.033Z,101219.00
2023-03-30T17:34:58.028Z,101213.00
2023-03-30T17:37:30.936Z,101213.00
2023-03-30T17:40:04.772Z,101211.00
2023-03-30T17:42:40.414Z,101202.00
2023-03-30T17:45:12.615Z,101196.00
2023-03-30T17:47:47.458Z,101200.00
2023-03-30T17:50:24.591Z,101201.00
2023-03-30T17:52:57.972Z,101199.00
2023-03-30T17:55:35.515Z,101206.00
2023-03-30T17:58:09.807Z,101198.00
2023-03-30T18:00:43.065Z,101201.00
2023-03-30T18:03:16.086Z,101203.00
2023-03-30T18:05:49.208Z,101209.00
2023-03-30T18:08:24.189Z,101212.00
2023-03-30T18:11:00.777Z,101212.00
2023-03-30T18:13:35.947Z,101218.00
2023-03-30T18:16:09.441Z,101221.00
2023-03-30T18:18:46.847Z,101225.00
2023-03-30T18:21:23.217Z,101223.00
2023-03-30T18:23:57.546Z,101225.00
2023-03-30T18:26:33.563Z,101219.00
2023-03-30T18:29:08.486Z,101211.00
2023-03-30T18:31:41.541Z,101219.00
2023-03-30T18:34:14.890Z,101212.00
2023-03-30T18:36:48.131Z,101214.00
2023-03-30T18:39:23.252Z,101212.00
2023-03-30T18:47:57.424Z,101211.00
2023-03-30T18:51:07.961Z,101213.00
2023-03-30T18:54:17.397Z,101228.00
2023-03-30T18:57:05.432Z,101219.00
2023-03-30T18:59:50.433Z,101218.00
2023-03-30T19:02:38.274Z,101217.00
2023-03-30T19:05:36.606Z,101223.00
2023-03-30T19:08:29.006Z,101236.00
2023-03-30T19:11:08.831Z,101240.00
2023-03-30T19:13:57.993Z,101251.00
2023-03-30T19:16:31.205Z,101243.00
2023-03-30T19:19:06.106Z,101256.00
2023-03-30T19:21:47.265Z,101253.00
2023-03-30T19:24:20.995Z,101249.00
2023-03-30T19:27:05.118Z,101260.00
2023-03-30T19:29:38.327Z,101270.00
2023-03-30T19:32:13.936Z,101264.00
2023-03-30T19:34:46.950Z,101277.00
2023-03-30T19:37:20.084Z,101276.00
2023-03-30T19:39:54.745Z,101283.00
2023-03-30T19:42:28.463Z,101283.00
2023-03-30T19:45:01.339Z,101289.00
2023-03-30T19:47:38.876Z,101293.00
2023-03-30T19:50:13.151Z,101282.00
2023-03-30T19:52:46.045Z,101293.00
2023-03-30T19:55:19.690Z,101293.00
2023-03-30T19:57:52.976Z,101295.00
2023-03-30T20:00:26.212Z,101302.00
2023-03-30T20:02:59.874Z,101305.00
2023-03-30T20:05:33.172Z,101297.00
2023-03-30T20:08:13.750Z,101301.00
2023-03-30T20:10:43.014Z,101299.00
2023-03-30T20:13:15.290Z,101309.00
2023-03-30T20:15:48.991Z,101312.00
2023-03-30T20:18:22.636Z,101314.00
2023-03-30T20:20:56.753Z,101311.00
2023-03-30T20:23:29.603Z,101309.00
2023-03-30T20:26:04.889Z,101308.00
2023-03-30T20:28:55.048Z,101306.00
2023-03-30T20:31:27.979Z,101306.00
2023-03-30T20:34:04.788Z,101306.00
2023-03-30T20:36:37.654Z,101308.00
2023-03-30T20:39:15.966Z,101301.00
2023-03-30T20:41:48.721Z,101306.00
2023-03-30T20:44:22.839Z,101299.00
2023-03-30T20:46:56.966Z,101297.00
2023-03-30T20:49:30.540Z,101293.00
2023-03-30T20:52:03.973Z,101293.00
2023-03-30T20:54:36.878Z,101289.00
2023-03-30T20:57:09.785Z,101291.00
2023-03-30T20:59:45.234Z,101295.00
2023-03-30T21:02:18.536Z,101296.00
2023-03-30T21:04:52.131Z,101305.00
2023-03-30T21:07:26.267Z,101306.00
2023-03-30T21:09:59.357Z,101320.00
2023-03-30T21:12:32.313Z,101301.00
2023-03-30T21:15:05.305Z,101312.00
2023-03-30T21:17:38.269Z,101316.00
2023-03-30T21:20:20.030Z,101320.00
2023-03-30T21:22:53.326Z,101315.00
2023-03-30T21:25:26.184Z,101314.00
2023-03-30T21:27:59.104Z,101307.00
2023-03-30T21:30:33.920Z,101309.00
2023-03-30T21:33:07.048Z,101305.00
2023-03-30T21:35:40.262Z,101321.00
2023-03-30T21:38:13.109Z,101304.00
2023-03-30T21:40:46.049Z,101303.00
2023-03-30T21:43:19.257Z,101301.00
2023-03-30T21:45:57.179Z,101304.00
2023-03-30T21:48:31.245Z,101303.00
2023-03-30T21:51:05.821Z,101299.00
2023-03-30T21:53:39.162Z,101303.00
2023-03-30T21:56:13.061Z,101293.00
2023-03-30T21:58:46.206Z,101290.00
2023-03-30T22:01:22.274Z,101294.00
2023-03-30T22:03:53.898Z,101297.00
2023-03-30T22:06:26.879Z,101294.00
2023-03-30T22:08:59.883Z,101293.00
2023-03-30T22:11:32.870Z,101292.00
2023-03-30T22:14:06.135Z,101297.00
2023-03-30T22:16:39.068Z,101304.00
2023-03-30T22:19:12.014Z,101298.00
2023-03-30T22:21:45.305Z,101290.00
2023-03-30T22:24:19.671Z,101294.00
2023-03-30T22:26:52.585Z,101295.00
2023-03-30T22:29:26.235Z,101301.00
2023-03-30T22:31:59.939Z,101303.00
2023-03-30T22:34:33.522Z,101292.00
2023-03-30T22:37:06.885Z,101308.00
2023-03-30T22:39:39.778Z,101303.00
2023-03-30T22:42:12.565Z,101294.00
2023-03-30T22:44:45.357Z,101297.00
2023-03-30T22:47:18.277Z,101296.00
2023-03-30T22:49:52.134Z,101294.00
2023-03-30T22:52:29.152Z,101301.00
2023-03-30T22:55:02.124Z,101301.00
2023-03-30T22:57:35.144Z,101302.00
2023-03-30T23:00:15.942Z,101302.00
2023-03-30T23:02:49.128Z,101302.00
2023-03-30T23:05:24.177Z,101304.00
2023-03-30T23:07:57.401Z,101302.00
2023-03-30T23:10:31.840Z,101294.00
2023-03-30T23:13:07.874Z,101301.00
2023-03-30T23:15:40.866Z,101301.00
2023-03-30T23:18:17.352Z,101292.00
2023-03-30T23:20:50.491Z,101296.00
2023-03-30T23:23:25.991Z,101289.00
2023-03-30T23:26:03.223Z,101294.00
2023-03-30T23:28:36.364Z,101291.00
2023-03-30T23:31:20.797Z,101294.00
2023-03-30T23:33:55.133Z,101293.00
2023-03-30T23:36:30.877Z,101288.00
2023-03-30T23:39:04.105Z,101294.00
2023-03-30T23:41:37.214Z,101291.00
2023-03-30T23:44:11.642Z,101285.00
2023-03-30T23:46:44.619Z,101284.00
2023-03-30T23:49:23.718Z,101284.00
2023-03-30T23:51:56.548Z,101283.00
2023-03-30T23:54:30.914Z,101281.00
2023-03-30T23:57:09.003Z,101288.00
2023-03-30T23:59:48.628Z,101279.00
